Coto de Caza, California
Current Conditions -  °F | °C
As of 6:53 AM on Thursday 30 Oct 2014 (Local Time) from KSNA Reporting Station
Broken Clouds Broken Clouds  
Wind Chill: 63°   Ceiling: 30000
Heat Index: 63°   Visibility: 10mi
Dew Point: 56°   Wind: 0mph
Humidity: 78%   Direction: NA
Pressure: 29.96"   Gusts: NA
Location:  33.6153°N, 117.532°W
Report Text: KSNA 301353Z 00000KT 10SM SCT180 BKN300 17/13 A2996 RMK AO2 SLP145 T01720133
Loading
Personal Weather Stations






























Interactive Weather Map
Tropical Storm Tracking
New forecast layout! Learn more

10-Day Weather Forecast

Advertisements
Track Severe Weather on mobile